sensor_id;sensor_type;location;lat;lon;timestamp;pressure;altitude;pressure_sealevel;temperature;humidity
61697;BME280;47610;52.252;20.922;2023-02-04T00:03:25;99595.80;;;-1.92;100.00
61697;BME280;47610;52.252;20.922;2023-02-04T00:08:30;99621.20;;;-1.96;100.00
61697;BME280;47610;52.252;20.922;2023-02-04T00:13:34;99631.45;;;-2.00;100.00
61697;BME280;47610;52.252;20.922;2023-02-04T00:18:38;99655.95;;;-2.03;100.00
61697;BME280;47610;52.252;20.922;2023-02-04T00:23:43;99675.24;;;-2.05;100.00
61697;BME280;47610;52.252;20.922;2023-02-04T00:28:46;99684.80;;;-2.09;100.00
61697;BME280;47610;52.252;20.922;2023-02-04T00:33:49;99690.45;;;-2.13;100.00
61697;BME280;47610;52.252;20.922;2023-02-04T00:38:55;99701.20;;;-2.17;100.00
61697;BME280;47610;52.252;20.922;2023-02-04T00:43:59;99723.81;;;-2.21;100.00
61697;BME280;47610;52.252;20.922;2023-02-04T00:49:02;99738.29;;;-2.24;100.00
61697;BME280;47610;52.252;20.922;2023-02-04T00:54:06;99750.27;;;-2.27;100.00
61697;BME280;47610;52.252;20.922;2023-02-04T00:59:09;99772.59;;;-2.28;100.00
61697;BME280;47610;52.252;20.922;2023-02-04T01:04:12;99782.34;;;-2.28;100.00
61697;BME280;47610;52.252;20.922;2023-02-04T01:09:16;99804.27;;;-2.26;100.00
61697;BME280;47610;52.252;20.922;2023-02-04T01:14:20;99821.37;;;-2.24;100.00
61697;BME280;47610;52.252;20.922;2023-02-04T01:19:25;99829.78;;;-2.23;100.00
61697;BME280;47610;52.252;20.922;2023-02-04T01:24:29;99843.23;;;-2.23;100.00
61697;BME280;47610;52.252;20.922;2023-02-04T01:29:35;99863.06;;;-2.22;100.00
61697;BME280;47610;52.252;20.922;2023-02-04T01:34:39;99875.67;;;-2.21;100.00
61697;BME280;47610;52.252;20.922;2023-02-04T01:39:43;99890.73;;;-2.16;100.00
61697;BME280;47610;52.252;20.922;2023-02-04T01:44:47;99908.35;;;-2.12;100.00
61697;BME280;47610;52.252;20.922;2023-02-04T01:49:53;99927.27;;;-2.08;100.00
61697;BME280;47610;52.252;20.922;2023-02-04T01:54:56;99944.73;;;-2.07;100.00
61697;BME280;47610;52.252;20.922;2023-02-04T02:00:00;99964.66;;;-2.04;100.00
61697;BME280;47610;52.252;20.922;2023-02-04T02:05:06;99969.86;;;-2.00;100.00
61697;BME280;47610;52.252;20.922;2023-02-04T02:18:07;100020.46;;;-1.93;100.00
61697;BME280;47610;52.252;20.922;2023-02-04T02:23:17;100041.14;;;-1.93;100.00
61697;BME280;47610;52.252;20.922;2023-02-04T02:28:23;100066.62;;;-1.92;100.00
61697;BME280;47610;52.252;20.922;2023-02-04T02:33:26;100088.27;;;-1.89;100.00
61697;BME280;47610;52.252;20.922;2023-02-04T02:38:32;100109.09;;;-1.85;100.00
61697;BME280;47610;52.252;20.922;2023-02-04T02:43:36;100126.04;;;-1.84;100.00
61697;BME280;47610;52.252;20.922;2023-02-04T02:48:40;100144.11;;;-1.81;100.00
61697;BME280;47610;52.252;20.922;2023-02-04T02:53:49;100158.04;;;-1.79;100.00
61697;BME280;47610;52.252;20.922;2023-02-04T02:58:53;100184.67;;;-1.73;100.00
61697;BME280;47610;52.252;20.922;2023-02-04T03:03:57;100196.53;;;-1.66;100.00
61697;BME280;47610;52.252;20.922;2023-02-04T03:09:01;100205.95;;;-1.61;100.00
61697;BME280;47610;52.252;20.922;2023-02-04T03:14:06;100222.79;;;-1.58;100.00
61697;BME280;47610;52.252;20.922;2023-02-04T03:19:11;100239.88;;;-1.55;100.00
61697;BME280;47610;52.252;20.922;2023-02-04T03:24:13;100254.86;;;-1.54;100.00
61697;BME280;47610;52.252;20.922;2023-02-04T03:29:19;100276.70;;;-1.54;100.00
61697;BME280;47610;52.252;20.922;2023-02-04T03:34:24;100300.52;;;-1.53;100.00
61697;BME280;47610;52.252;20.922;2023-02-04T03:39:29;100324.02;;;-1.53;100.00
61697;BME280;47610;52.252;20.922;2023-02-04T03:44:33;100339.94;;;-1.52;100.00
61697;BME280;47610;52.252;20.922;2023-02-04T03:49:37;100350.00;;;-1.56;100.00
61697;BME280;47610;52.252;20.922;2023-02-04T03:54:41;100367.75;;;-1.65;100.00
61697;BME280;47610;52.252;20.922;2023-02-04T03:59:45;100383.39;;;-1.81;100.00
61697;BME280;47610;52.252;20.922;2023-02-04T04:04:48;100407.19;;;-1.99;100.00
61697;BME280;47610;52.252;20.922;2023-02-04T04:09:52;100424.00;;;-2.15;100.00
61697;BME280;47610;52.252;20.922;2023-02-04T04:14:55;100441.35;;;-2.29;100.00
61697;BME280;47610;52.252;20.922;2023-02-04T04:19:59;100454.27;;;-2.42;100.00
61697;BME280;47610;52.252;20.922;2023-02-04T04:25:02;100462.95;;;-2.57;100.00
61697;BME280;47610;52.252;20.922;2023-02-04T04:38:23;100525.21;;;-2.62;100.00
61697;BME280;47610;52.252;20.922;2023-02-04T04:43:28;100536.39;;;-2.55;100.00
61697;BME280;47610;52.252;20.922;2023-02-04T04:48:31;100553.30;;;-2.52;100.00
61697;BME280;47610;52.252;20.922;2023-02-04T04:53:36;100561.38;;;-2.45;100.00
61697;BME280;47610;52.252;20.922;2023-02-04T04:58:40;100571.58;;;-2.32;100.00
61697;BME280;47610;52.252;20.922;2023-02-04T05:03:46;100588.75;;;-2.20;100.00
61697;BME280;47610;52.252;20.922;2023-02-04T05:08:51;100600.14;;;-2.09;100.00
61697;BME280;47610;52.252;20.922;2023-02-04T05:13:54;100616.61;;;-1.99;100.00
61697;BME280;47610;52.252;20.922;2023-02-04T05:18:58;100635.46;;;-1.91;100.00
61697;BME280;47610;52.252;20.922;2023-02-04T05:24:02;100645.98;;;-1.83;100.00
61697;BME280;47610;52.252;20.922;2023-02-04T05:29:07;100660.69;;;-1.77;100.00
61697;BME280;47610;52.252;20.922;2023-02-04T05:34:10;100671.76;;;-1.72;100.00
61697;BME280;47610;52.252;20.922;2023-02-04T05:39:16;100691.92;;;-1.69;100.00
61697;BME280;47610;52.252;20.922;2023-02-04T05:44:20;100708.95;;;-1.67;100.00
61697;BME280;47610;52.252;20.922;2023-02-04T05:49:24;100726.58;;;-1.65;100.00
61697;BME280;47610;52.252;20.922;2023-02-04T05:54:31;100741.83;;;-1.65;100.00
61697;BME280;47610;52.252;20.922;2023-02-04T05:59:34;100762.36;;;-1.67;100.00
61697;BME280;47610;52.252;20.922;2023-02-04T06:04:38;100785.02;;;-1.70;100.00
61697;BME280;47610;52.252;20.922;2023-02-04T06:09:42;100804.75;;;-1.70;100.00
61697;BME280;47610;52.252;20.922;2023-02-04T06:14:47;100820.73;;;-1.70;100.00
61697;BME280;47610;52.252;20.922;2023-02-04T06:19:50;100843.55;;;-1.67;100.00
61697;BME280;47610;52.252;20.922;2023-02-04T06:24:54;100853.09;;;-1.64;100.00
61697;BME280;47610;52.252;20.922;2023-02-04T06:29:58;100863.09;;;-1.68;100.00
61697;BME280;47610;52.252;20.922;2023-02-04T06:35:01;100882.60;;;-1.73;100.00
61697;BME280;47610;52.252;20.922;2023-02-04T06:40:12;100896.94;;;-1.80;100.00
61697;BME280;47610;52.252;20.922;2023-02-04T06:45:18;100908.34;;;-1.93;100.00
61697;BME280;47610;52.252;20.922;2023-02-04T06:58:16;100944.23;;;-2.25;100.00
61697;BME280;47610;52.252;20.922;2023-02-04T07:03:21;100958.65;;;-2.30;100.00
61697;BME280;47610;52.252;20.922;2023-02-04T07:08:25;100972.48;;;-2.29;100.00
61697;BME280;47610;52.252;20.922;2023-02-04T07:13:30;100985.94;;;-2.25;100.00
61697;BME280;47610;52.252;20.922;2023-02-04T07:18:32;100998.45;;;-2.24;100.00
61697;BME280;47610;52.252;20.922;2023-02-04T07:23:38;101013.11;;;-2.31;100.00
61697;BME280;47610;52.252;20.922;2023-02-04T07:28:43;101021.91;;;-2.37;100.00
61697;BME280;47610;52.252;20.922;2023-02-04T07:33:50;101039.08;;;-2.41;100.00
61697;BME280;47610;52.252;20.922;2023-02-04T07:38:54;101054.15;;;-2.43;100.00
61697;BME280;47610;52.252;20.922;2023-02-04T07:44:00;101056.98;;;-2.44;100.00
61697;BME280;47610;52.252;20.922;2023-02-04T07:49:03;101073.17;;;-2.37;100.00
61697;BME280;47610;52.252;20.922;2023-02-04T07:54:08;101076.70;;;-2.33;100.00
61697;BME280;47610;52.252;20.922;2023-02-04T07:59:13;101090.52;;;-2.27;100.00
61697;BME280;47610;52.252;20.922;2023-02-04T08:04:16;101098.90;;;-2.24;100.00
61697;BME280;47610;52.252;20.922;2023-02-04T08:09:19;101112.92;;;-2.04;100.00
61697;BME280;47610;52.252;20.922;2023-02-04T08:14:23;101114.55;;;-0.06;100.00
61697;BME280;47610;52.252;20.922;2023-02-04T08:19:28;101119.34;;;3.76;100.00
61697;BME280;47610;52.252;20.922;2023-02-04T08:24:32;101140.29;;;6.37;100.00
61697;BME280;47610;52.252;20.922;2023-02-04T08:29:37;101148.73;;;6.48;100.00
61697;BME280;47610;52.252;20.922;2023-02-04T08:34:41;101157.88;;;6.70;100.00
61697;BME280;47610;52.252;20.922;2023-02-04T08:39:44;101170.45;;;7.70;100.00
61697;BME280;47610;52.252;20.922;2023-02-04T08:44:50;101176.31;;;8.33;100.00
61697;BME280;47610;52.252;20.922;2023-02-04T08:49:52;101179.34;;;8.98;96.66
61697;BME280;47610;52.252;20.922;2023-02-04T08:54:56;101172.89;;;8.08;87.16
61697;BME280;47610;52.252;20.922;2023-02-04T09:00:00;101173.70;;;8.76;81.66
61697;BME280;47610;52.252;20.922;2023-02-04T09:05:07;101179.35;;;10.40;75.89
61697;BME280;47610;52.252;20.922;2023-02-04T09:17:35;101187.21;;;12.11;63.29
61697;BME280;47610;52.252;20.922;2023-02-04T09:22:41;101194.89;;;13.10;59.34
61697;BME280;47610;52.252;20.922;2023-02-04T09:27:45;101205.32;;;13.98;55.78
61697;BME280;47610;52.252;20.922;2023-02-04T09:32:53;101216.01;;;14.73;51.24
61697;BME280;47610;52.252;20.922;2023-02-04T09:37:57;101230.10;;;15.22;43.10
61697;BME280;47610;52.252;20.922;2023-02-04T09:42:59;101237.73;;;16.09;39.95
61697;BME280;47610;52.252;20.922;2023-02-04T09:48:08;101246.45;;;16.66;38.87
61697;BME280;47610;52.252;20.922;2023-02-04T09:53:18;101260.84;;;16.77;37.66
61697;BME280;47610;52.252;20.922;2023-02-04T09:58:28;101272.02;;;16.04;36.95
61697;BME280;47610;52.252;20.922;2023-02-04T10:03:38;101275.86;;;15.11;35.43
61697;BME280;47610;52.252;20.922;2023-02-04T10:08:45;101276.67;;;15.14;35.46
61697;BME280;47610;52.252;20.922;2023-02-04T10:13:50;101281.30;;;15.33;36.80
61697;BME280;47610;52.252;20.922;2023-02-04T10:19:00;101283.09;;;15.18;36.97
61697;BME280;47610;52.252;20.922;2023-02-04T10:24:09;101279.41;;;14.35;37.05
61697;BME280;47610;52.252;20.922;2023-02-04T10:29:18;101284.10;;;12.82;38.79
61697;BME280;47610;52.252;20.922;2023-02-04T10:34:31;101291.89;;;11.95;39.59
61697;BME280;47610;52.252;20.922;2023-02-04T10:39:42;101292.87;;;11.43;40.42
61697;BME280;47610;52.252;20.922;2023-02-04T10:44:50;101300.89;;;9.80;43.40
61697;BME280;47610;52.252;20.922;2023-02-04T10:49:59;101306.69;;;8.33;48.24
61697;BME280;47610;52.252;20.922;2023-02-04T10:55:05;101309.02;;;6.92;54.47
61697;BME280;47610;52.252;20.922;2023-02-04T11:05:28;101309.34;;;5.07;64.46
61697;BME280;47610;52.252;20.922;2023-02-04T11:10:34;101312.16;;;4.53;70.36
61697;BME280;47610;52.252;20.922;2023-02-04T11:15:46;101299.63;;;4.20;74.11
61697;BME280;47610;52.252;20.922;2023-02-04T11:20:53;101300.84;;;4.08;77.10
61697;BME280;47610;52.252;20.922;2023-02-04T11:26:09;101302.37;;;3.96;80.05
61697;BME280;47610;52.252;20.922;2023-02-04T11:36:31;101313.05;;;3.99;83.55
61697;BME280;47610;52.252;20.922;2023-02-04T11:41:41;101316.09;;;3.77;83.96
61697;BME280;47610;52.252;20.922;2023-02-04T11:46:55;101320.23;;;3.59;86.29
61697;BME280;47610;52.252;20.922;2023-02-04T11:52:14;101319.44;;;3.49;87.68
61697;BME280;47610;52.252;20.922;2023-02-04T11:57:19;101321.08;;;3.37;88.13
61697;BME280;47610;52.252;20.922;2023-02-04T12:02:21;101327.94;;;3.33;89.53
61697;BME280;47610;52.252;20.922;2023-02-04T12:07:33;101326.52;;;3.32;91.44
61697;BME280;47610;52.252;20.922;2023-02-04T12:12:52;101328.17;;;3.16;93.69
61697;BME280;47610;52.252;20.922;2023-02-04T12:18:09;101329.28;;;3.09;96.26
61697;BME280;47610;52.252;20.922;2023-02-04T12:23:15;101328.14;;;3.08;97.50
61697;BME280;47610;52.252;20.922;2023-02-04T12:28:21;101334.52;;;2.95;99.33
61697;BME280;47610;52.252;20.922;2023-02-04T12:33:27;101337.60;;;2.82;100.00
61697;BME280;47610;52.252;20.922;2023-02-04T12:38:32;101351.48;;;2.66;100.00
61697;BME280;47610;52.252;20.922;2023-02-04T12:43:38;101355.88;;;2.40;100.00
61697;BME280;47610;52.252;20.922;2023-02-04T12:48:42;101365.23;;;2.28;100.00
61697;BME280;47610;52.252;20.922;2023-02-04T12:53:47;101363.73;;;2.19;100.00
61697;BME280;47610;52.252;20.922;2023-02-04T12:58:53;101362.86;;;2.25;100.00
61697;BME280;47610;52.252;20.922;2023-02-04T13:03:56;101363.76;;;2.17;100.00
61697;BME280;47610;52.252;20.922;2023-02-04T13:09:02;101370.75;;;2.10;100.00
61697;BME280;47610;52.252;20.922;2023-02-04T13:14:07;101372.05;;;1.97;100.00
61697;BME280;47610;52.252;20.922;2023-02-04T13:19:11;101380.09;;;1.65;100.00
61697;BME280;47610;52.252;20.922;2023-02-04T13:24:15;101380.80;;;1.24;100.00
61697;BME280;47610;52.252;20.922;2023-02-04T13:29:18;101388.28;;;0.85;100.00
61697;BME280;47610;52.252;20.922;2023-02-04T13:34:21;101390.90;;;0.53;100.00
61697;BME280;47610;52.252;20.922;2023-02-04T13:39:26;101390.17;;;0.31;100.00
61697;BME280;47610;52.252;20.922;2023-02-04T13:44:28;101399.22;;;0.03;99.81
61697;BME280;47610;52.252;20.922;2023-02-04T13:56:17;101432.62;;;-0.52;99.89
61697;BME280;47610;52.252;20.922;2023-02-04T14:01:21;101437.66;;;-0.67;99.86
61697;BME280;47610;52.252;20.922;2023-02-04T14:06:24;101442.41;;;-0.62;99.73
61697;BME280;47610;52.252;20.922;2023-02-04T14:11:27;101448.10;;;-0.52;99.09
61697;BME280;47610;52.252;20.922;2023-02-04T14:16:31;101446.70;;;-0.43;99.68
61697;BME280;47610;52.252;20.922;2023-02-04T14:21:34;101455.05;;;-0.31;100.00
61697;BME280;47610;52.252;20.922;2023-02-04T14:26:41;101459.21;;;-0.30;100.00
61697;BME280;47610;52.252;20.922;2023-02-04T14:31:44;101461.51;;;-0.40;100.00
61697;BME280;47610;52.252;20.922;2023-02-04T14:36:48;101460.04;;;-0.54;100.00
61697;BME280;47610;52.252;20.922;2023-02-04T14:41:53;101463.90;;;-0.61;100.00
61697;BME280;47610;52.252;20.922;2023-02-04T14:46:58;101468.15;;;-0.75;100.00
61697;BME280;47610;52.252;20.922;2023-02-04T14:52:02;101470.72;;;-0.92;100.00
61697;BME280;47610;52.252;20.922;2023-02-04T14:57:05;101477.37;;;-1.10;100.00
61697;BME280;47610;52.252;20.922;2023-02-04T15:02:11;101484.30;;;-1.28;100.00
61697;BME280;47610;52.252;20.922;2023-02-04T15:07:15;101488.02;;;-1.47;100.00
61697;BME280;47610;52.252;20.922;2023-02-04T15:12:19;101500.11;;;-1.64;100.00
61697;BME280;47610;52.252;20.922;2023-02-04T15:17:25;101504.25;;;-1.79;100.00
61697;BME280;47610;52.252;20.922;2023-02-04T15:22:28;101509.39;;;-1.93;100.00
61697;BME280;47610;52.252;20.922;2023-02-04T15:27:32;101516.17;;;-2.06;100.00
61697;BME280;47610;52.252;20.922;2023-02-04T15:32:35;101519.11;;;-2.18;100.00
61697;BME280;47610;52.252;20.922;2023-02-04T15:37:38;101524.70;;;-2.30;100.00
61697;BME280;47610;52.252;20.922;2023-02-04T15:42:44;101539.33;;;-2.39;100.00
61697;BME280;47610;52.252;20.922;2023-02-04T15:47:47;101541.55;;;-2.47;100.00
61697;BME280;47610;52.252;20.922;2023-02-04T15:52:50;101547.13;;;-2.54;100.00
61697;BME280;47610;52.252;20.922;2023-02-04T15:57:54;101549.75;;;-2.60;100.00
61697;BME280;47610;52.252;20.922;2023-02-04T16:02:58;101562.24;;;-2.68;100.00
61697;BME280;47610;52.252;20.922;2023-02-04T16:16:38;101576.98;;;-2.88;100.00
61697;BME280;47610;52.252;20.922;2023-02-04T16:21:41;101577.73;;;-2.96;100.00
61697;BME280;47610;52.252;20.922;2023-02-04T16:26:45;101585.04;;;-3.02;100.00
61697;BME280;47610;52.252;20.922;2023-02-04T16:31:49;101592.75;;;-3.09;100.00
61697;BME280;47610;52.252;20.922;2023-02-04T16:36:54;101590.39;;;-3.18;100.00
61697;BME280;47610;52.252;20.922;2023-02-04T16:41:58;101597.70;;;-3.28;100.00
61697;BME280;47610;52.252;20.922;2023-02-04T16:47:02;101602.42;;;-3.36;100.00
61697;BME280;47610;52.252;20.922;2023-02-04T16:52:06;101608.34;;;-3.44;100.00
61697;BME280;47610;52.252;20.922;2023-02-04T16:57:10;101620.86;;;-3.45;100.00
61697;BME280;47610;52.252;20.922;2023-02-04T17:02:13;101628.11;;;-3.45;100.00
61697;BME280;47610;52.252;20.922;2023-02-04T17:07:17;101638.43;;;-3.44;100.00
61697;BME280;47610;52.252;20.922;2023-02-04T17:12:21;101639.92;;;-3.46;100.00
61697;BME280;47610;52.252;20.922;2023-02-04T17:17:26;101641.84;;;-3.49;100.00
61697;BME280;47610;52.252;20.922;2023-02-04T17:22:30;101647.79;;;-3.50;100.00
61697;BME280;47610;52.252;20.922;2023-02-04T17:27:34;101649.63;;;-3.48;100.00
61697;BME280;47610;52.252;20.922;2023-02-04T17:32:37;101661.24;;;-3.47;100.00
61697;BME280;47610;52.252;20.922;2023-02-04T17:37:40;101665.73;;;-3.46;100.00
61697;BME280;47610;52.252;20.922;2023-02-04T17:42:44;101672.25;;;-3.41;100.00
61697;BME280;47610;52.252;20.922;2023-02-04T17:47:49;101680.51;;;-3.34;100.00
61697;BME280;47610;52.252;20.922;2023-02-04T17:52:52;101683.05;;;-3.27;100.00
61697;BME280;47610;52.252;20.922;2023-02-04T17:57:57;101694.73;;;-3.23;100.00
61697;BME280;47610;52.252;20.922;2023-02-04T18:03:02;101699.85;;;-3.20;100.00
61697;BME280;47610;52.252;20.922;2023-02-04T18:08:14;101702.48;;;-3.20;100.00
61697;BME280;47610;52.252;20.922;2023-02-04T18:13:22;101710.45;;;-3.14;100.00
61697;BME280;47610;52.252;20.922;2023-02-04T18:18:29;101707.63;;;-3.12;100.00
61697;BME280;47610;52.252;20.922;2023-02-04T18:23:34;101712.21;;;-3.11;100.00
61697;BME280;47610;52.252;20.922;2023-02-04T18:36:33;101723.96;;;-3.01;100.00
61697;BME280;47610;52.252;20.922;2023-02-04T18:41:38;101727.91;;;-2.99;100.00
61697;BME280;47610;52.252;20.922;2023-02-04T18:46:47;101731.78;;;-2.99;100.00
61697;BME280;47610;52.252;20.922;2023-02-04T18:51:52;101741.61;;;-3.00;100.00
61697;BME280;47610;52.252;20.922;2023-02-04T18:57:13;101753.38;;;-2.99;100.00
61697;BME280;47610;52.252;20.922;2023-02-04T19:02:34;101754.46;;;-2.97;100.00
61697;BME280;47610;52.252;20.922;2023-02-04T19:07:38;101764.69;;;-2.96;100.00
61697;BME280;47610;52.252;20.922;2023-02-04T19:12:43;101767.54;;;-2.93;100.00
61697;BME280;47610;52.252;20.922;2023-02-04T19:17:47;101768.15;;;-2.94;100.00
61697;BME280;47610;52.252;20.922;2023-02-04T19:22:54;101767.65;;;-2.95;100.00
61697;BME280;47610;52.252;20.922;2023-02-04T19:27:59;101773.92;;;-2.94;100.00
61697;BME280;47610;52.252;20.922;2023-02-04T19:33:17;101785.42;;;-2.94;100.00
61697;BME280;47610;52.252;20.922;2023-02-04T19:38:40;101791.80;;;-2.95;100.00
61697;BME280;47610;52.252;20.922;2023-02-04T19:43:45;101790.16;;;-2.97;100.00
61697;BME280;47610;52.252;20.922;2023-02-04T19:48:49;101798.58;;;-2.98;100.00
61697;BME280;47610;52.252;20.922;2023-02-04T19:53:56;101799.52;;;-3.01;100.00
61697;BME280;47610;52.252;20.922;2023-02-04T19:59:25;101798.76;;;-3.00;100.00
61697;BME280;47610;52.252;20.922;2023-02-04T20:04:35;101806.06;;;-3.00;100.00
61697;BME280;47610;52.252;20.922;2023-02-04T20:09:42;101803.63;;;-2.99;100.00
61697;BME280;47610;52.252;20.922;2023-02-04T20:14:45;101806.62;;;-3.02;100.00
61697;BME280;47610;52.252;20.922;2023-02-04T20:19:50;101820.30;;;-3.00;100.00
61697;BME280;47610;52.252;20.922;2023-02-04T20:24:57;101826.89;;;-2.99;100.00
61697;BME280;47610;52.252;20.922;2023-02-04T20:30:24;101825.96;;;-3.01;100.00
61697;BME280;47610;52.252;20.922;2023-02-04T20:41:18;101833.41;;;-3.02;100.00
61697;BME280;47610;52.252;20.922;2023-02-04T20:46:23;101842.75;;;-3.06;100.00
61697;BME280;47610;52.252;20.922;2023-02-04T20:56:27;101860.71;;;-3.04;100.00
61697;BME280;47610;52.252;20.922;2023-02-04T21:01:35;101870.41;;;-3.04;100.00
61697;BME280;47610;52.252;20.922;2023-02-04T21:06:40;101873.48;;;-3.06;100.00
61697;BME280;47610;52.252;20.922;2023-02-04T21:11:43;101883.18;;;-3.06;100.00
61697;BME280;47610;52.252;20.922;2023-02-04T21:16:47;101881.34;;;-3.11;100.00
61697;BME280;47610;52.252;20.922;2023-02-04T21:21:52;101888.67;;;-3.16;100.00
61697;BME280;47610;52.252;20.922;2023-02-04T21:26:57;101896.71;;;-3.25;100.00
61697;BME280;47610;52.252;20.922;2023-02-04T21:32:02;101902.05;;;-3.43;100.00
61697;BME280;47610;52.252;20.922;2023-02-04T21:37:06;101905.45;;;-3.64;100.00
61697;BME280;47610;52.252;20.922;2023-02-04T21:42:09;101902.66;;;-3.86;100.00
61697;BME280;47610;52.252;20.922;2023-02-04T21:47:13;101917.57;;;-4.01;100.00
61697;BME280;47610;52.252;20.922;2023-02-04T21:52:18;101923.45;;;-4.19;100.00
61697;BME280;47610;52.252;20.922;2023-02-04T21:57:23;101928.27;;;-4.34;100.00
61697;BME280;47610;52.252;20.922;2023-02-04T22:02:26;101941.25;;;-4.46;100.00
61697;BME280;47610;52.252;20.922;2023-02-04T22:07:29;101940.63;;;-4.57;100.00
61697;BME280;47610;52.252;20.922;2023-02-04T22:12:37;101943.86;;;-4.67;100.00
61697;BME280;47610;52.252;20.922;2023-02-04T22:17:40;101944.35;;;-4.75;100.00
61697;BME280;47610;52.252;20.922;2023-02-04T22:22:45;101950.40;;;-4.83;100.00
61697;BME280;47610;52.252;20.922;2023-02-04T22:27:50;101951.63;;;-4.90;100.00
61697;BME280;47610;52.252;20.922;2023-02-04T22:32:53;101959.36;;;-4.99;100.00
61697;BME280;47610;52.252;20.922;2023-02-04T22:37:57;101965.80;;;-5.07;100.00
61697;BME280;47610;52.252;20.922;2023-02-04T22:43:00;101976.75;;;-5.13;100.00
61697;BME280;47610;52.252;20.922;2023-02-04T22:48:05;101986.70;;;-5.21;100.00
61697;BME280;47610;52.252;20.922;2023-02-04T22:53:08;101982.28;;;-5.28;100.00
61697;BME280;47610;52.252;20.922;2023-02-04T22:58:11;101991.27;;;-5.34;100.00
61697;BME280;47610;52.252;20.922;2023-02-04T23:03:15;102003.58;;;-5.40;100.00
61697;BME280;47610;52.252;20.922;2023-02-04T23:16:08;102019.58;;;-5.50;100.00
61697;BME280;47610;52.252;20.922;2023-02-04T23:21:12;102023.89;;;-5.56;100.00
61697;BME280;47610;52.252;20.922;2023-02-04T23:26:15;102029.20;;;-5.62;100.00
61697;BME280;47610;52.252;20.922;2023-02-04T23:31:21;102030.90;;;-5.69;100.00
61697;BME280;47610;52.252;20.922;2023-02-04T23:36:27;102029.57;;;-5.77;100.00
61697;BME280;47610;52.252;20.922;2023-02-04T23:41:30;102037.42;;;-5.83;100.00
61697;BME280;47610;52.252;20.922;2023-02-04T23:46:34;102039.33;;;-5.89;100.00
61697;BME280;47610;52.252;20.922;2023-02-04T23:51:39;102035.98;;;-5.90;100.00
61697;BME280;47610;52.252;20.922;2023-02-04T23:56:42;102043.33;;;-5.79;100.00
